createdAt,value
2023-03-23T15:59:56.628Z,10.57
2023-03-23T16:03:02.204Z,10.00
2023-03-23T16:06:12.018Z,9.63
2023-03-23T16:09:20.949Z,10.32
2023-03-23T16:12:25.008Z,11.07
2023-03-23T16:15:27.850Z,10.25
2023-03-23T16:18:32.633Z,9.80
2023-03-23T16:21:35.740Z,13.50
2023-03-23T16:24:38.870Z,27.35
2023-03-23T16:27:42.438Z,11.00
2023-03-23T16:30:46.694Z,12.20
2023-03-23T16:33:49.582Z,61.67
2023-03-23T16:36:53.074Z,72.87
2023-03-23T16:39:55.917Z,16.27
2023-03-23T16:43:00.666Z,46.42
2023-03-23T16:46:03.553Z,10.65
2023-03-23T16:49:06.713Z,11.82
2023-03-23T16:52:10.230Z,13.03
2023-03-23T16:55:13.582Z,13.62
2023-03-23T16:58:18.231Z,12.25
2023-03-23T17:01:21.321Z,11.10
2023-03-23T17:04:26.244Z,15.70
2023-03-23T17:07:29.310Z,11.17
2023-03-23T17:10:32.556Z,9.57
2023-03-23T17:13:35.781Z,23.23
2023-03-23T17:16:40.347Z,24.42
2023-03-23T17:19:43.406Z,26.65
2023-03-23T17:22:47.257Z,29.53
2023-03-23T17:25:50.697Z,45.17
2023-03-23T17:28:54.665Z,59.10
2023-03-23T17:31:57.671Z,21.87
2023-03-23T17:35:00.965Z,23.08
2023-03-23T17:38:04.679Z,20.80
2023-03-23T17:41:08.381Z,34.65
2023-03-23T17:44:11.356Z,33.97
2023-03-23T17:47:15.911Z,53.38
2023-03-23T17:50:19.997Z,70.93
2023-03-23T17:53:22.811Z,73.77
2023-03-23T17:56:26.006Z,125.32
2023-03-23T17:59:29.778Z,66.00
2023-03-23T18:02:32.897Z,85.15
2023-03-23T18:05:39.848Z,60.28
2023-03-23T18:08:42.815Z,59.87
2023-03-23T18:11:46.683Z,60.38
2023-03-23T18:14:50.249Z,114.72
2023-03-23T18:17:54.557Z,71.97
2023-03-23T18:21:02.093Z,48.58
2023-03-23T18:24:09.300Z,41.63
2023-03-23T18:27:12.186Z,46.65
2023-03-23T18:30:15.868Z,43.38
2023-03-23T18:33:20.553Z,40.85
2023-03-23T18:36:26.576Z,44.75
2023-03-23T18:39:32.014Z,41.10
2023-03-23T18:42:35.247Z,35.22
2023-03-23T18:45:38.580Z,43.55
2023-03-23T18:48:42.133Z,39.05
2023-03-23T18:51:45.068Z,43.42
2023-03-23T18:54:48.511Z,51.77
2023-03-23T18:57:51.730Z,63.63
2023-03-23T19:00:57.501Z,72.18
2023-03-23T19:04:00.966Z,58.83
2023-03-23T19:07:13.376Z,48.40
2023-03-23T19:10:17.583Z,55.70
2023-03-23T19:13:21.019Z,55.78
2023-03-23T19:16:25.159Z,52.00
2023-03-23T19:19:28.556Z,65.75
2023-03-23T19:22:33.084Z,63.42
2023-03-23T19:25:36.742Z,71.20
2023-03-23T19:31:47.813Z,90.12
2023-03-23T19:34:51.398Z,86.90
2023-03-23T19:38:00.864Z,115.43
2023-03-23T19:41:05.815Z,108.40
2023-03-23T19:44:09.312Z,89.95
2023-03-23T19:47:12.732Z,87.47
2023-03-23T19:50:17.270Z,90.75
2023-03-23T19:53:20.809Z,94.47
2023-03-23T19:56:25.396Z,102.33
2023-03-23T19:59:29.000Z,141.65
2023-03-23T20:02:32.241Z,111.03
2023-03-23T20:05:36.322Z,79.00
2023-03-23T20:08:45.445Z,80.35
2023-03-23T20:11:50.219Z,79.43
2023-03-23T20:14:53.536Z,75.53
2023-03-23T20:18:01.152Z,81.87
2023-03-23T20:21:09.874Z,86.30
2023-03-23T20:24:13.290Z,81.65
2023-03-23T20:27:17.485Z,68.50
2023-03-23T20:30:20.675Z,86.87
2023-03-23T20:33:23.885Z,76.85
2023-03-23T20:36:30.083Z,76.70
2023-03-23T20:39:33.693Z,83.80
2023-03-23T20:42:36.677Z,68.90
2023-03-23T20:45:39.877Z,67.00
2023-03-23T20:48:43.006Z,70.47
2023-03-23T20:51:46.756Z,76.25
2023-03-23T20:54:51.206Z,72.35
2023-03-23T20:58:01.246Z,78.40
2023-03-23T21:01:05.752Z,65.50
2023-03-23T21:04:15.608Z,72.15
2023-03-23T21:07:23.337Z,65.22
2023-03-23T21:10:28.036Z,50.78
2023-03-23T21:13:31.733Z,60.10
2023-03-23T21:16:35.173Z,57.60
2023-03-23T21:19:38.494Z,48.28
2023-03-23T21:22:42.116Z,45.10
2023-03-23T21:25:45.730Z,39.10
2023-03-23T21:28:50.976Z,50.97
2023-03-23T21:32:05.259Z,42.38
2023-03-23T21:35:12.218Z,42.15
2023-03-23T21:38:15.191Z,44.22
2023-03-23T21:41:18.089Z,39.53
2023-03-23T21:44:27.039Z,40.93
2023-03-23T21:47:32.871Z,41.45
2023-03-23T21:50:37.882Z,46.47
2023-03-23T21:53:42.374Z,39.78
2023-03-23T21:56:45.192Z,43.08
2023-03-23T21:59:50.910Z,37.27
2023-03-23T22:02:53.975Z,38.85
2023-03-23T22:05:56.961Z,39.95
2023-03-23T22:12:10.136Z,34.03
2023-03-23T22:15:16.565Z,38.30
2023-03-23T22:18:19.311Z,44.22
2023-03-23T22:21:23.339Z,29.73
2023-03-23T22:24:26.461Z,29.63
2023-03-23T22:27:29.064Z,30.58
2023-03-23T22:30:33.345Z,31.53
2023-03-23T22:33:37.120Z,35.42
2023-03-23T22:36:41.376Z,32.45
2023-03-23T22:39:44.657Z,32.67
2023-03-23T22:42:47.427Z,25.88
2023-03-23T22:45:54.225Z,27.07
2023-03-23T22:48:57.091Z,27.17
2023-03-23T22:52:00.153Z,26.20
2023-03-23T22:55:04.825Z,26.77
2023-03-23T22:58:07.721Z,29.65
2023-03-23T23:01:14.022Z,25.37
2023-03-23T23:04:17.806Z,27.75
2023-03-23T23:07:21.729Z,26.48
2023-03-23T23:10:24.290Z,21.25
2023-03-23T23:13:27.817Z,25.88
2023-03-23T23:16:31.291Z,23.03
2023-03-23T23:19:34.016Z,26.65
2023-03-23T23:22:36.817Z,21.95
2023-03-23T23:25:39.644Z,22.17
2023-03-23T23:28:42.717Z,23.35
2023-03-23T23:31:47.624Z,18.80
2023-03-23T23:34:53.188Z,20.88
2023-03-23T23:37:55.932Z,22.37
2023-03-23T23:40:58.726Z,23.73
2023-03-23T23:44:01.860Z,20.12
2023-03-23T23:47:06.164Z,20.20
2023-03-23T23:50:11.773Z,19.52
